Time;durP1;ratioP1;P1;durP2;ratioP2;P2;SDS_P1;SDS_P2;PMS_P1;PMS_P2;Temp;Humidity;BMP_temperature;BMP_pressure;BME280_temperature;BME280_humidity;BME280_pressure;Samples;Min_cycle;Max_cycle;Signal;HPM_P1;HPM_P2
2024/02/12 00:00:59;;;;;;;1.10;1.00;;;;;;;3.32;76.52;90947.00;5091432;28;20051;-79
2024/02/12 00:03:26;;;;;;;0.85;0.85;;;;;;;3.35;76.42;90950.84;5075565;28;20028;-78
2024/02/12 00:05:52;;;;;;;0.80;0.80;;;;;;;3.31;75.94;90947.28;5092240;28;20111;-79
2024/02/12 00:08:18;;;;;;;1.70;0.90;;;;;;;3.30;76.97;90949.09;5099063;28;20071;-79
2024/02/12 00:10:45;;;;;;;0.70;0.70;;;;;;;3.30;77.62;90949.09;5090536;28;20058;-79
2024/02/12 00:13:11;;;;;;;0.77;0.77;;;;;;;3.28;77.85;90946.03;5111540;28;20028;-79
2024/02/12 00:15:39;;;;;;;0.70;0.70;;;;;;;3.25;79.71;90946.59;5111065;28;20086;-78
2024/02/12 00:18:05;;;;;;;1.05;0.90;;;;;;;3.16;80.22;90942.31;5080261;28;20035;-78
2024/02/12 00:20:31;;;;;;;0.90;0.90;;;;;;;3.18;83.37;90945.41;5088023;28;20039;-78
2024/02/12 00:22:57;;;;;;;0.90;0.90;;;;;;;3.13;80.92;90944.41;5103892;28;20027;-78
2024/02/12 00:25:24;;;;;;;0.80;0.80;;;;;;;3.12;79.59;90948.03;5107536;28;20044;-81
2024/02/12 00:27:50;;;;;;;0.70;0.70;;;;;;;3.13;77.83;90944.41;5111245;28;20030;-78
2024/02/12 00:30:18;;;;;;;0.80;0.80;;;;;;;3.12;78.38;90947.28;5091675;28;20168;-78
2024/02/12 00:32:43;;;;;;;0.73;0.73;;;;;;;3.12;78.16;90944.69;5098563;28;20052;-76
2024/02/12 00:35:10;;;;;;;0.85;0.85;;;;;;;3.10;79.15;90942.38;5094635;28;20039;-76
2024/02/12 00:37:39;;;;;;;0.95;0.90;;;;;;;3.05;81.33;90942.44;5120778;28;20032;-77
2024/02/12 00:40:09;;;;;;;0.80;0.80;;;;;;;3.02;79.92;90944.81;5102452;28;20039;-77
2024/02/12 00:42:36;;;;;;;1.00;1.00;;;;;;;2.97;80.91;90950.03;5103092;28;20023;-78
2024/02/12 00:45:11;;;;;;;0.85;0.85;;;;;;;2.91;80.12;90951.94;5112588;28;20036;-78
2024/02/12 00:47:39;;;;;;;0.90;0.90;;;;;;;2.87;80.23;90950.94;5096075;28;20020;-77
2024/02/12 00:50:05;;;;;;;0.90;0.90;;;;;;;2.89;79.54;90959.19;5104669;28;20038;-78
2024/02/12 00:52:35;;;;;;;0.70;0.70;;;;;;;2.89;80.53;90959.19;5084626;28;20040;-78
2024/02/12 00:55:02;;;;;;;0.80;0.80;;;;;;;2.88;81.32;90957.63;5111627;28;20078;-78
2024/02/12 00:57:28;;;;;;;0.85;0.85;;;;;;;2.87;81.02;90961.28;5112877;28;20458;-78
2024/02/12 00:59:54;;;;;;;0.90;0.90;;;;;;;2.81;81.56;90962.38;5104564;28;20355;-78
2024/02/12 01:02:19;;;;;;;0.80;0.80;;;;;;;2.81;80.93;90972.69;5082628;28;20020;-78
2024/02/12 01:04:46;;;;;;;0.60;0.60;;;;;;;2.79;80.34;90975.59;5110185;28;20043;-78
2024/02/12 01:07:11;;;;;;;0.90;0.90;;;;;;;2.79;79.92;90970.41;5105065;28;20036;-78
2024/02/12 01:09:37;;;;;;;0.80;0.80;;;;;;;2.81;80.32;90975.28;5099804;28;20043;-78
2024/02/12 01:12:03;;;;;;;0.70;0.70;;;;;;;2.81;80.11;90977.88;5089559;28;20055;-77
2024/02/12 01:14:29;;;;;;;0.80;0.80;;;;;;;2.83;78.92;90970.63;5080638;28;20067;-78
2024/02/12 01:16:59;;;;;;;0.75;0.75;;;;;;;2.84;79.07;90969.59;5106826;28;20092;-77
2024/02/12 01:19:24;;;;;;;0.70;0.70;;;;;;;2.85;80.58;90971.88;5106918;28;20032;-78
2024/02/12 01:21:50;;;;;;;1.08;0.90;;;;;;;2.83;80.99;90970.63;5107943;28;20027;-77
2024/02/12 01:24:16;;;;;;;0.80;0.80;;;;;;;2.81;81.24;90977.88;5107787;28;20036;-78
2024/02/12 01:26:42;;;;;;;0.90;0.90;;;;;;;2.80;81.17;90977.09;5103115;28;20548;-78
2024/02/12 01:29:08;;;;;;;0.90;0.90;;;;;;;2.79;80.34;90983.34;5111513;28;20046;-76
2024/02/12 01:31:36;;;;;;;0.77;0.77;;;;;;;2.78;81.38;90981.78;5089305;28;20024;-78
2024/02/12 01:34:04;;;;;;;0.88;0.80;;;;;;;2.71;81.44;90982.09;5110241;28;20067;-78
2024/02/12 01:36:31;;;;;;;0.63;0.63;;;;;;;2.76;81.38;90988.28;5094766;28;20111;-77
2024/02/12 01:38:57;;;;;;;0.70;0.70;;;;;;;2.70;81.02;90972.03;5108742;28;20050;-78
2024/02/12 01:41:24;;;;;;;0.60;0.60;;;;;;;2.74;80.01;90985.94;5104452;28;20040;-78
2024/02/12 01:43:51;;;;;;;0.70;0.70;;;;;;;2.71;80.01;90982.09;5107753;28;20032;-78
2024/02/12 01:46:19;;;;;;;0.75;0.75;;;;;;;2.68;79.87;90974.91;5106375;28;20107;-77
2024/02/12 01:48:45;;;;;;;0.90;0.90;;;;;;;2.71;79.66;90978.75;5102622;28;20040;-78
2024/02/12 01:51:14;;;;;;;0.85;0.85;;;;;;;2.71;80.06;90984.69;5088512;28;20479;-78
2024/02/12 01:53:42;;;;;;;0.80;0.80;;;;;;;2.70;80.29;90980.59;5100596;28;20433;-78
2024/02/12 01:56:11;;;;;;;0.90;0.90;;;;;;;2.71;81.42;90973.59;5090739;28;20027;-77
2024/02/12 01:58:40;;;;;;;0.70;0.70;;;;;;;2.75;80.26;90976.38;5083772;28;20035;-78
2024/02/12 02:01:16;;;;;;;0.80;0.70;;;;;;;2.79;79.01;90970.41;5106636;28;20497;-77
2024/02/12 02:03:46;;;;;;;1.15;0.90;;;;;;;2.78;80.76;90968.84;5094713;28;20050;-78
2024/02/12 02:06:12;;;;;;;1.02;1.02;;;;;;;2.73;80.07;90968.16;5103402;28;20036;-78
2024/02/12 02:08:39;;;;;;;1.00;0.90;;;;;;;2.75;80.26;90960.88;5092286;28;20020;-78
2024/02/12 02:11:13;;;;;;;0.77;0.77;;;;;;;2.73;81.23;90966.34;5094048;28;20114;-77
2024/02/12 02:13:43;;;;;;;0.95;0.95;;;;;;;2.69;84.45;90968.69;5104775;28;20097;-77
2024/02/12 02:16:09;;;;;;;0.80;0.80;;;;;;;2.64;84.97;90962.81;5095532;28;20122;-78
2024/02/12 02:18:36;;;;;;;0.80;0.80;;;;;;;2.63;85.31;90969.78;5099257;28;20099;-78
2024/02/12 02:21:03;;;;;;;0.80;0.80;;;;;;;2.57;86.43;90963.16;5105200;28;20062;-77
2024/02/12 02:23:28;;;;;;;0.90;0.90;;;;;;;2.56;86.70;90966.75;5108941;28;20047;-77
2024/02/12 02:25:55;;;;;;;0.70;0.70;;;;;;;2.56;87.35;90971.91;5103385;28;20027;-77
2024/02/12 02:28:23;;;;;;;0.90;0.90;;;;;;;2.53;86.21;90972.47;5100966;28;20040;-77
2024/02/12 02:30:49;;;;;;;0.77;0.77;;;;;;;2.52;86.03;90978.66;5110619;28;20046;-78
2024/02/12 02:33:16;;;;;;;0.80;0.80;;;;;;;2.49;84.92;90974.06;5104153;28;20048;-77
2024/02/12 02:35:44;;;;;;;0.98;0.93;;;;;;;2.48;84.49;90975.13;5110174;28;20343;-78
2024/02/12 02:38:13;;;;;;;0.73;0.73;;;;;;;2.47;85.22;90981.31;5109100;28;20063;-77
2024/02/12 02:40:39;;;;;;;0.70;0.70;;;;;;;2.46;86.17;90982.38;5093902;28;20031;-79
2024/02/12 02:43:06;;;;;;;0.90;0.90;;;;;;;2.44;85.30;90981.88;5106811;28;20097;-78
2024/02/12 02:45:31;;;;;;;0.90;0.90;;;;;;;2.41;86.06;90978.03;5103616;28;20039;-77
2024/02/12 02:47:57;;;;;;;0.70;0.70;;;;;;;2.37;86.48;90969.28;5107822;28;20044;-80
2024/02/12 02:50:24;;;;;;;0.98;0.90;;;;;;;2.38;86.01;90981.13;5094304;28;20023;-79
2024/02/12 02:52:50;;;;;;;0.90;0.90;;;;;;;2.35;86.54;90976.53;5102103;28;20071;-79
2024/02/12 02:55:17;;;;;;;0.80;0.80;;;;;;;2.36;85.00;90978.03;5107753;28;20020;-79
2024/02/12 02:57:47;;;;;;;0.98;0.90;;;;;;;2.38;84.85;90985.53;5101890;28;20152;-79
2024/02/12 03:00:13;;;;;;;0.95;0.95;;;;;;;2.38;84.43;90983.72;5106949;28;20028;-79
2024/02/12 03:02:39;;;;;;;1.85;0.98;;;;;;;2.35;85.17;90981.69;5100451;28;20099;-79
2024/02/12 03:05:05;;;;;;;0.85;0.85;;;;;;;2.34;86.30;90980.13;5090235;28;20462;-78
2024/02/12 03:07:35;;;;;;;0.80;0.80;;;;;;;2.34;84.30;90985.28;5101715;28;20028;-79
2024/02/12 03:10:01;;;;;;;0.70;0.70;;;;;;;2.34;83.67;90984.53;5105579;28;20123;-78
2024/02/12 03:12:27;;;;;;;1.23;1.00;;;;;;;2.39;82.59;90987.09;5088451;28;20040;-78
2024/02/12 03:14:53;;;;;;;0.85;0.85;;;;;;;2.44;82.52;90985.22;5077147;28;20064;-79
2024/02/12 03:17:18;;;;;;;0.80;0.80;;;;;;;2.49;82.70;90992.16;5101892;28;20028;-79
2024/02/12 03:19:44;;;;;;;0.95;0.70;;;;;;;2.51;81.99;90987.47;5110883;28;20035;-78
2024/02/12 03:22:10;;;;;;;0.60;0.60;;;;;;;2.58;81.19;90998.25;5091602;28;20395;-78
2024/02/12 03:24:36;;;;;;;0.70;0.70;;;;;;;2.61;80.84;90997.72;5106030;28;20035;-78
2024/02/12 03:27:03;;;;;;;1.00;1.00;;;;;;;2.90;79.83;90999.47;5087891;28;20076;-78
2024/02/12 03:29:31;;;;;;;0.75;0.75;;;;;;;3.02;79.92;91004.28;5091781;28;20036;-79
2024/02/12 03:31:56;;;;;;;0.90;0.90;;;;;;;2.99;79.44;91015.16;5114329;28;20422;-79
2024/02/12 03:34:22;;;;;;;0.90;0.90;;;;;;;3.26;75.35;91014.59;5101027;28;20110;-78
2024/02/12 03:36:48;;;;;;;0.73;0.73;;;;;;;3.34;74.49;91011.41;5104396;28;20097;-79
2024/02/12 03:39:14;;;;;;;1.70;0.77;;;;;;;3.38;74.25;91016.78;5108283;28;20340;-78
2024/02/12 03:41:39;;;;;;;0.93;0.93;;;;;;;3.45;74.13;91015.41;5100018;28;20055;-79
2024/02/12 03:44:06;;;;;;;0.90;0.90;;;;;;;3.45;75.85;91015.41;5109404;28;20039;-78
2024/02/12 03:46:35;;;;;;;0.90;0.90;;;;;;;3.47;75.39;91018.50;5110385;28;20019;-78
2024/02/12 04:00:07;;;;;;;0.73;0.73;;;;;;;3.71;72.11;91030.59;5087896;28;20050;-79
2024/02/12 04:02:38;;;;;;;0.55;0.55;;;;;;;3.73;72.80;91028.50;5088103;28;20060;-79
2024/02/12 04:05:05;;;;;;;0.80;0.80;;;;;;;3.76;72.42;91033.13;5082174;28;20067;-77
2024/02/12 04:07:31;;;;;;;0.80;0.80;;;;;;;3.77;73.04;91041.66;5085725;28;20092;-77
2024/02/12 04:09:59;;;;;;;1.02;1.00;;;;;;;3.90;67.73;91039.16;5111689;28;20043;-80
2024/02/12 04:12:26;;;;;;;0.80;0.80;;;;;;;3.97;69.16;91044.72;5104740;28;20476;-80
2024/02/12 04:14:52;;;;;;;0.90;0.90;;;;;;;3.97;69.70;91047.31;5099176;28;20043;-79
2024/02/12 04:17:20;;;;;;;0.70;0.70;;;;;;;3.96;70.98;91045.00;5105583;28;20023;-79
2024/02/12 04:19:48;;;;;;;0.77;0.77;;;;;;;3.89;71.42;91047.19;5101187;28;20028;-78
2024/02/12 04:22:14;;;;;;;0.80;0.80;;;;;;;3.90;71.78;91048.72;5080914;28;20035;-79
2024/02/12 04:24:41;;;;;;;0.70;0.70;;;;;;;3.85;73.36;91054.75;5085460;28;20107;-78
2024/02/12 04:27:08;;;;;;;0.65;0.65;;;;;;;3.84;72.76;91055.03;5098871;28;20035;-79
2024/02/12 04:29:37;;;;;;;0.80;0.70;;;;;;;3.84;72.40;91060.97;5091045;28;20059;-79
2024/02/12 04:32:12;;;;;;;0.75;0.75;;;;;;;3.82;71.77;91060.47;5096986;28;20079;-76
2024/02/12 04:34:39;;;;;;;0.70;0.70;;;;;;;3.88;71.47;91072.31;5098294;28;20031;-79
2024/02/12 04:37:11;;;;;;;0.77;0.77;;;;;;;3.88;71.21;91077.47;5103013;28;20027;-79
2024/02/12 04:39:37;;;;;;;0.60;0.60;;;;;;;3.91;70.39;91078.75;5080471;28;20519;-79
2024/02/12 04:42:03;;;;;;;0.93;0.70;;;;;;;3.89;70.60;91075.66;5104257;28;20119;-79
2024/02/12 04:44:29;;;;;;;0.80;0.80;;;;;;;3.88;70.48;91081.91;5068014;28;20063;-79
2024/02/12 04:46:56;;;;;;;0.77;0.77;;;;;;;3.84;71.06;91088.69;5104049;28;20048;-79
2024/02/12 04:49:22;;;;;;;0.70;0.70;;;;;;;3.78;71.31;91080.19;5096072;28;20044;-78
2024/02/12 04:51:48;;;;;;;0.60;0.60;;;;;;;3.80;72.33;91092.88;5105171;28;20031;-79
2024/02/12 04:54:14;;;;;;;0.70;0.70;;;;;;;3.72;73.64;91089.84;5099618;28;20067;-79
2024/02/12 04:56:43;;;;;;;0.70;0.70;;;;;;;3.68;76.04;91088.09;5109756;28;20110;-78
2024/02/12 04:59:13;;;;;;;0.70;0.70;;;;;;;3.49;77.45;91073.31;5089409;28;20042;-79
2024/02/12 05:01:39;;;;;;;0.68;0.68;;;;;;;3.50;78.92;91092.19;5101237;28;20154;-79
2024/02/12 05:04:05;;;;;;;0.70;0.70;;;;;;;3.49;75.32;91091.44;5088026;28;20104;-78
2024/02/12 05:06:33;;;;;;;0.80;0.80;;;;;;;3.52;74.66;91087.50;5089479;28;20434;-79
2024/02/12 05:09:02;;;;;;;0.80;0.80;;;;;;;3.59;74.11;91089.75;5113221;28;20111;-79
2024/02/12 05:11:28;;;;;;;0.85;0.85;;;;;;;3.66;72.76;91085.78;5106046;28;20061;-78
2024/02/12 05:13:54;;;;;;;0.70;0.70;;;;;;;3.72;69.63;91083.91;5108786;28;20032;-79
2024/02/12 05:16:29;;;;;;;0.60;0.60;;;;;;;3.77;70.09;91096.78;5093745;28;20035;-78
2024/02/12 05:24:27;;;;;;;0.60;0.60;;;;;;;3.80;70.46;91111.75;5104928;28;20047;-78
2024/02/12 05:26:55;;;;;;;0.80;0.80;;;;;;;3.87;69.49;91111.41;5110643;28;20035;-79
2024/02/12 05:29:21;;;;;;;0.70;0.70;;;;;;;3.92;69.87;91114.72;5110471;28;20108;-79
2024/02/12 05:31:47;;;;;;;0.70;0.70;;;;;;;3.96;69.83;91114.91;5099968;28;20056;-79
2024/02/12 05:34:13;;;;;;;0.70;0.70;;;;;;;3.92;70.46;91117.31;5104446;28;20632;-78
2024/02/12 05:36:39;;;;;;;0.93;0.93;;;;;;;3.94;71.46;91117.81;5109784;28;20088;-78
2024/02/12 05:39:05;;;;;;;0.75;0.75;;;;;;;3.96;70.78;91118.28;5110135;28;20048;-78
2024/02/12 05:41:30;;;;;;;1.10;1.00;;;;;;;3.97;70.13;91117.22;5104757;28;20028;-79
2024/02/12 05:43:56;;;;;;;0.80;0.80;;;;;;;4.03;69.27;91119.75;5091275;28;20031;-78
2024/02/12 05:46:22;;;;;;;0.80;0.80;;;;;;;4.09;67.83;91114.22;5084555;28;20042;-78
2024/02/12 05:48:47;;;;;;;0.73;0.70;;;;;;;4.18;66.36;91127.31;5073387;28;20189;-79
2024/02/12 05:51:13;;;;;;;0.60;0.60;;;;;;;4.22;66.85;91119.78;5091643;28;20166;-80
2024/02/12 05:53:39;;;;;;;0.70;0.70;;;;;;;4.24;66.53;91123.63;5083884;28;20044;-78
2024/02/12 05:56:05;;;;;;;0.75;0.75;;;;;;;4.26;67.83;91116.34;5059746;28;20024;-77
2024/02/12 05:58:30;;;;;;;0.60;0.60;;;;;;;4.27;68.10;91122.28;5111435;28;20394;-78
2024/02/12 06:00:56;;;;;;;0.75;0.75;;;;;;;4.27;68.58;91120.47;5110317;28;20142;-77
2024/02/12 06:03:22;;;;;;;0.60;0.60;;;;;;;4.26;69.37;91118.16;5103098;28;20028;-78
2024/02/12 06:05:49;;;;;;;0.80;0.80;;;;;;;4.22;70.25;91114.59;5110453;28;20050;-77
2024/02/12 06:08:15;;;;;;;0.77;0.77;;;;;;;4.21;70.00;91115.63;5110432;28;20035;-77
2024/02/12 06:10:41;;;;;;;0.77;0.77;;;;;;;4.19;74.20;91126.28;5110079;28;20024;-77
2024/02/12 06:13:07;;;;;;;0.85;0.80;;;;;;;4.17;71.51;91123.22;5109363;28;20039;-78
2024/02/12 06:15:32;;;;;;;0.70;0.70;;;;;;;4.16;71.77;91130.19;5091386;28;20402;-78
2024/02/12 06:17:58;;;;;;;1.25;0.98;;;;;;;4.12;72.47;91129.22;5110945;28;20039;-78
2024/02/12 06:20:24;;;;;;;1.15;0.85;;;;;;;4.08;73.81;91132.66;5111165;28;20479;-76
2024/02/12 06:22:50;;;;;;;0.60;0.60;;;;;;;4.02;74.26;91133.75;5110742;28;20039;-78
2024/02/12 06:25:18;;;;;;;1.00;0.90;;;;;;;4.01;74.71;91135.59;5092154;28;20532;-76
2024/02/12 06:27:47;;;;;;;0.70;0.70;;;;;;;4.05;72.90;91133.19;5092405;28;20043;-78
2024/02/12 06:30:14;;;;;;;0.80;0.80;;;;;;;4.03;72.99;91140.47;5103351;28;20019;-79
2024/02/12 06:32:43;;;;;;;0.82;0.82;;;;;;;4.04;73.18;91132.44;5068797;28;20048;-76
2024/02/12 06:35:08;;;;;;;0.80;0.80;;;;;;;4.09;74.14;91149.72;5069735;28;20135;-79
2024/02/12 06:37:35;;;;;;;0.73;0.73;;;;;;;4.06;74.62;91147.69;5068612;28;20146;-78
2024/02/12 06:40:02;;;;;;;0.80;0.80;;;;;;;4.09;73.33;91149.72;5072160;28;20028;-79
2024/02/12 06:42:30;;;;;;;0.70;0.70;;;;;;;4.12;70.74;91149.94;5074696;28;20041;-79
2024/02/12 06:44:56;;;;;;;1.00;0.90;;;;;;;4.12;70.56;91154.34;5073117;28;20028;-76
2024/02/12 06:47:22;;;;;;;1.20;1.10;;;;;;;4.44;70.58;91150.31;5073210;28;20070;-77
2024/02/12 06:49:47;;;;;;;0.88;0.88;;;;;;;5.58;68.71;91166.38;5073182;28;20103;-79
2024/02/12 06:52:13;;;;;;;1.30;1.20;;;;;;;6.61;64.32;91165.16;5073047;28;20059;-79
2024/02/12 06:54:39;;;;;;;0.80;0.80;;;;;;;7.47;58.82;91169.41;5071558;28;20059;-77
2024/02/12 06:57:04;;;;;;;0.80;0.80;;;;;;;7.32;55.58;91172.41;5067533;28;20047;-79
2024/02/12 06:59:30;;;;;;;0.80;0.80;;;;;;;7.10;56.19;91181.75;5075176;28;20074;-77
2024/02/12 07:01:56;;;;;;;0.60;0.60;;;;;;;6.83;57.14;91174.84;5055723;28;20040;-79
2024/02/12 07:04:22;;;;;;;0.60;0.60;;;;;;;6.67;55.04;91190.00;5074697;28;20032;-77
2024/02/12 07:06:48;;;;;;;1.15;0.75;;;;;;;6.50;56.39;91192.44;5064574;28;20041;-76
2024/02/12 07:09:13;;;;;;;0.60;0.60;;;;;;;6.34;58.64;91186.78;5075182;28;20024;-79
2024/02/12 07:11:39;;;;;;;0.70;0.70;;;;;;;6.22;58.95;91189.91;5074512;28;20032;-78
2024/02/12 07:14:04;;;;;;;1.58;0.80;;;;;;;6.16;58.39;91181.41;5068823;28;20373;-78
2024/02/12 07:16:30;;;;;;;0.70;0.70;;;;;;;6.13;58.86;91191.63;5071754;28;20234;-78
2024/02/12 07:18:56;;;;;;;0.70;0.70;;;;;;;6.12;60.99;91188.25;5074816;28;20032;-77
2024/02/12 07:21:22;;;;;;;0.80;0.80;;;;;;;6.15;61.62;91189.53;5071349;28;20037;-80
2024/02/12 07:23:47;;;;;;;0.93;0.80;;;;;;;6.28;61.55;91193.91;5076575;28;20035;-79
2024/02/12 07:26:13;;;;;;;1.60;0.80;;;;;;;6.44;60.60;91192.56;5077314;28;20330;-78
2024/02/12 07:28:39;;;;;;;0.80;0.80;;;;;;;6.67;59.28;91192.59;5055923;28;20039;-78
2024/02/12 07:31:08;;;;;;;0.80;0.80;;;;;;;6.84;58.36;91191.97;5070399;28;20090;-76
2024/02/12 07:33:35;;;;;;;1.20;0.80;;;;;;;7.26;58.64;91206.38;5078403;28;20143;-79
2024/02/12 07:36:04;;;;;;;0.93;0.85;;;;;;;7.82;57.05;91204.22;5073983;28;20705;-80
2024/02/12 07:38:30;;;;;;;1.25;0.90;;;;;;;8.49;53.71;91208.47;5093259;28;20383;-78
2024/02/12 07:40:56;;;;;;;1.00;0.90;;;;;;;8.75;51.65;91205.13;5086577;28;20040;-78
2024/02/12 07:43:24;;;;;;;2.83;1.10;;;;;;;8.84;53.00;91216.34;5077294;28;20025;-77
2024/02/12 07:45:50;;;;;;;2.42;0.85;;;;;;;8.93;54.21;91216.34;5083725;28;20066;-77
2024/02/12 07:48:16;;;;;;;1.02;0.80;;;;;;;8.88;54.16;91219.88;5084086;28;20049;-79
2024/02/12 07:50:42;;;;;;;1.90;1.30;;;;;;;8.81;56.59;91224.03;5091367;28;20036;-78
2024/02/12 07:53:07;;;;;;;1.52;1.15;;;;;;;8.96;59.83;91226.16;5083793;28;20020;-77
2024/02/12 07:55:33;;;;;;;2.30;1.40;;;;;;;9.89;55.80;91217.03;5089856;28;20028;-77
2024/02/12 07:57:58;;;;;;;3.22;2.00;;;;;;;10.85;52.58;91227.06;5086880;28;20032;-79
2024/02/12 08:00:25;;;;;;;1.50;1.20;;;;;;;11.86;48.49;91226.88;5089155;28;20089;-79
2024/02/12 08:02:50;;;;;;;1.98;1.00;;;;;;;12.82;43.71;91231.03;5091626;28;20075;-79
2024/02/12 08:05:16;;;;;;;5.63;1.20;;;;;;;13.52;40.81;91228.16;5089136;28;20162;-76
2024/02/12 08:07:43;;;;;;;1.45;1.10;;;;;;;14.97;39.65;91239.28;5089168;28;20020;-79
2024/02/12 08:10:09;;;;;;;0.90;0.90;;;;;;;15.67;34.18;91226.38;5091009;28;20047;-79
2024/02/12 08:12:35;;;;;;;0.80;0.80;;;;;;;15.61;36.23;91234.59;5088398;28;20028;-79
2024/02/12 08:15:03;;;;;;;3.40;0.85;;;;;;;15.43;36.94;91238.75;5090159;28;20498;-77
2024/02/12 08:17:30;;;;;;;0.70;0.70;;;;;;;15.76;34.78;91235.66;5068913;28;20131;-80
2024/02/12 08:19:55;;;;;;;0.68;0.68;;;;;;;15.88;35.02;91242.66;5081132;28;20036;-78
2024/02/12 08:22:25;;;;;;;0.82;0.80;;;;;;;15.51;35.86;91237.75;5080748;28;20089;-77
2024/02/12 08:24:51;;;;;;;0.80;0.80;;;;;;;15.20;34.76;91246.56;5087245;28;20504;-77
2024/02/12 08:27:20;;;;;;;6.10;1.00;;;;;;;15.57;36.49;91249.56;5086971;28;20020;-77
2024/02/12 08:29:47;;;;;;;0.95;0.90;;;;;;;15.29;37.75;91236.59;5085775;28;20090;-79
2024/02/12 08:32:13;;;;;;;5.75;1.50;;;;;;;14.69;44.33;91249.94;5085244;28;20049;-77
2024/02/12 08:34:41;;;;;;;1.88;1.20;;;;;;;14.41;46.40;91255.28;5090144;28;20558;-80
2024/02/12 08:37:08;;;;;;;1.65;1.10;;;;;;;14.64;47.11;91247.56;5089291;28;20089;-77
2024/02/12 08:39:34;;;;;;;3.80;1.27;;;;;;;14.34;46.91;91253.22;5090342;28;20427;-78
2024/02/12 08:42:00;;;;;;;2.70;1.10;;;;;;;13.70;44.23;91248.94;5083599;28;20400;-78
2024/02/12 08:44:26;;;;;;;1.45;1.00;;;;;;;13.52;46.93;91261.59;5087947;28;20040;-77
2024/02/12 08:46:52;;;;;;;1.65;1.10;;;;;;;14.08;47.65;91260.81;5073954;28;20031;-76
2024/02/12 08:49:18;;;;;;;1.63;1.00;;;;;;;13.51;46.41;91260.06;5077584;28;20055;-75
2024/02/12 08:51:45;;;;;;;2.95;1.17;;;;;;;13.19;45.87;91259.13;5076073;28;20486;-74
2024/02/12 08:54:11;;;;;;;2.25;1.15;;;;;;;13.24;48.97;91266.75;5054340;28;20483;-75
2024/02/12 08:56:41;;;;;;;1.98;1.13;;;;;;;13.03;48.59;91261.66;5076004;28;20142;-78
2024/02/12 08:59:07;;;;;;;0.80;0.77;;;;;;;13.05;48.67;91260.22;5061882;28;20346;-75
2024/02/12 09:01:36;;;;;;;1.10;1.00;;;;;;;12.83;52.30;91263.31;5079056;28;20031;-77
2024/02/12 09:04:01;;;;;;;1.33;1.00;;;;;;;12.69;51.43;91268.91;5085343;28;20040;-76
2024/02/12 09:06:27;;;;;;;1.85;1.20;;;;;;;12.99;50.19;91274.69;5080286;28;20089;-77
2024/02/12 09:08:53;;;;;;;2.03;1.20;;;;;;;12.56;54.70;91273.34;5088655;28;20442;-79
2024/02/12 09:11:19;;;;;;;1.00;0.90;;;;;;;12.65;51.17;91266.16;5075535;28;20032;-77
2024/02/12 09:13:48;;;;;;;2.72;1.30;;;;;;;12.35;53.29;91267.44;5086528;28;20039;-77
2024/02/12 09:16:14;;;;;;;1.67;1.20;;;;;;;12.47;54.79;91272.69;5081658;28;20060;-77
2024/02/12 09:18:40;;;;;;;0.82;0.82;;;;;;;12.82;49.03;91273.06;5085931;28;20020;-78
2024/02/12 09:21:05;;;;;;;1.85;1.10;;;;;;;12.74;53.00;91273.91;5076557;28;20564;-80
2024/02/12 09:23:32;;;;;;;1.27;1.10;;;;;;;12.47;49.87;91281.34;5091342;28;20546;-80
2024/02/12 09:25:58;;;;;;;1.23;1.10;;;;;;;12.34;51.28;91281.63;5078714;28;20088;-76
2024/02/12 09:28:26;;;;;;;2.22;1.40;;;;;;;12.25;56.17;91282.53;5080869;28;20477;-75
2024/02/12 09:30:54;;;;;;;2.78;1.38;;;;;;;12.02;55.84;91286.59;5078056;28;20043;-76
2024/02/12 09:33:21;;;;;;;1.70;1.20;;;;;;;11.83;58.59;91284.44;5066870;28;20325;-76
2024/02/12 09:35:47;;;;;;;1.52;1.20;;;;;;;11.70;56.08;91281.00;5077386;28;20048;-73
2024/02/12 09:38:14;;;;;;;2.53;1.40;;;;;;;11.71;58.72;91293.03;5079501;28;20070;-73
2024/02/12 09:40:41;;;;;;;2.42;1.40;;;;;;;11.42;58.74;91286.78;5064790;28;20078;-74
2024/02/12 09:43:09;;;;;;;2.55;1.17;;;;;;;11.40;56.04;91288.94;5074260;28;20059;-76
2024/02/12 09:45:42;;;;;;;1.17;1.08;;;;;;;11.74;56.26;91281.91;5081242;28;20028;-76
2024/02/12 09:48:10;;;;;;;1.70;1.20;;;;;;;11.29;56.96;91297.50;5082756;28;20039;-78
2024/02/12 09:50:37;;;;;;;2.03;1.40;;;;;;;11.01;57.06;91293.53;5084167;28;20519;-77
2024/02/12 09:53:03;;;;;;;1.42;1.30;;;;;;;11.33;58.17;91287.94;5086370;28;20036;-76
2024/02/12 09:55:31;;;;;;;1.67;1.15;;;;;;;11.24;58.28;91285.38;5079653;28;20031;-78
2024/02/12 09:57:59;;;;;;;1.17;1.08;;;;;;;10.90;56.30;91287.13;5086368;28;20087;-77
2024/02/12 10:00:25;;;;;;;1.45;1.17;;;;;;;11.01;57.69;91301.38;5081804;28;20483;-76
2024/02/12 10:02:56;;;;;;;1.35;1.10;;;;;;;11.16;57.60;91294.03;5081773;28;20036;-81
2024/02/12 10:05:25;;;;;;;1.33;1.20;;;;;;;11.06;59.64;91310.91;5079977;28;20504;-77
2024/02/12 10:07:51;;;;;;;2.17;1.10;;;;;;;11.16;56.98;91315.00;5088184;28;20859;-77
2024/02/12 10:10:17;;;;;;;1.65;1.15;;;;;;;10.93;58.94;91311.91;5085704;28;20039;-78
2024/02/12 10:12:53;;;;;;;1.52;1.30;;;;;;;10.76;58.98;91307.50;5084319;28;20037;-80
2024/02/12 10:15:20;;;;;;;1.20;1.10;;;;;;;10.75;58.57;91300.75;5080346;28;20078;-79
2024/02/12 10:17:47;;;;;;;1.65;1.20;;;;;;;11.06;60.32;91316.13;5086603;28;20106;-78
2024/02/12 10:20:13;;;;;;;1.85;1.20;;;;;;;11.27;55.05;91307.53;5091360;28;20038;-76
2024/02/12 10:22:40;;;;;;;1.42;1.10;;;;;;;11.41;53.11;91300.94;5077234;28;20039;-73
2024/02/12 10:25:07;;;;;;;1.83;1.23;;;;;;;12.10;59.07;91304.13;5079502;28;20089;-75
2024/02/12 10:27:33;;;;;;;1.95;1.27;;;;;;;12.28;66.56;91309.97;5085234;28;20488;-77
2024/02/12 10:30:01;;;;;;;2.40;1.40;;;;;;;11.87;64.98;91312.34;5084882;28;20495;-76
2024/02/12 10:32:30;;;;;;;2.85;1.50;;;;;;;11.75;61.12;91309.63;5096631;28;20201;-77
2024/02/12 10:34:56;;;;;;;1.85;1.30;;;;;;;11.38;70.54;91312.06;5110237;28;20602;-76
2024/02/12 10:37:25;;;;;;;3.15;1.60;;;;;;;10.73;77.55;91314.13;5104296;28;20040;-76
2024/02/12 10:39:55;;;;;;;1.48;1.27;;;;;;;10.71;71.60;91316.28;5088136;28;20036;-78
2024/02/12 10:42:36;;;;;;;1.67;1.23;;;;;;;11.17;64.79;91321.78;5103821;28;20119;-74
2024/02/12 10:45:06;;;;;;;2.05;1.48;;;;;;;10.93;74.83;91307.41;5112757;28;20127;-77
2024/02/12 10:47:35;;;;;;;2.83;1.65;;;;;;;10.06;79.61;91322.63;5082826;28;20538;-75
2024/02/12 10:50:01;;;;;;;6.95;2.05;;;;;;;10.49;78.82;91319.94;5108535;28;20110;-76
2024/02/12 10:52:27;;;;;;;1.23;1.10;;;;;;;10.90;74.42;91313.28;5103918;28;20189;-77
2024/02/12 10:54:54;;;;;;;3.88;1.58;;;;;;;11.44;77.49;91310.81;5091245;28;20039;-77
2024/02/12 10:57:21;;;;;;;2.20;1.27;;;;;;;11.30;74.04;91315.50;5117296;28;20129;-76
2024/02/12 10:59:58;;;;;;;2.53;1.50;;;;;;;11.13;76.43;91324.25;5121189;28;20321;-77
2024/02/12 11:02:24;;;;;;;2.97;1.42;;;;;;;11.33;75.61;91312.28;5099869;28;20048;-75
2024/02/12 11:05:00;;;;;;;3.40;1.50;;;;;;;11.26;65.58;91319.88;5081580;28;20465;-77
2024/02/12 11:07:28;;;;;;;1.63;1.20;;;;;;;11.39;62.95;91318.06;5104731;28;20059;-76
2024/02/12 11:10:01;;;;;;;1.75;1.30;;;;;;;11.53;70.62;91317.81;5085248;28;20020;-75
2024/02/12 11:12:27;;;;;;;1.80;1.30;;;;;;;11.98;65.80;91322.44;5104704;28;20415;-75
2024/02/12 11:14:57;;;;;;;2.88;1.50;;;;;;;12.10;63.41;91327.72;5093085;28;20024;-76
2024/02/12 11:17:23;;;;;;;1.67;1.20;;;;;;;12.12;58.22;91327.41;5089340;28;20401;-75
2024/02/12 11:19:51;;;;;;;1.10;1.02;;;;;;;12.13;55.52;91318.44;5103074;28;20028;-74
2024/02/12 11:22:29;;;;;;;1.25;1.00;;;;;;;12.10;54.11;91325.09;5105665;28;20036;-75
2024/02/12 11:25:02;;;;;;;2.03;1.10;;;;;;;12.27;49.60;91329.41;5107066;28;20031;-75
2024/02/12 11:27:49;;;;;;;2.60;1.65;;;;;;;12.37;55.31;91321.13;5108722;28;20118;-76
2024/02/12 11:30:16;;;;;;;2.40;1.55;;;;;;;12.58;59.85;91321.06;5099727;28;20085;-78
2024/02/12 11:32:44;;;;;;;1.52;1.23;;;;;;;12.42;60.00;91323.53;5111250;28;20040;-77
2024/02/12 11:35:12;;;;;;;5.95;1.58;;;;;;;12.40;57.93;91317.09;5111999;28;20589;-76
2024/02/12 11:37:43;;;;;;;2.20;1.50;;;;;;;12.70;59.02;91326.34;5097168;28;20036;-75
2024/02/12 11:40:19;;;;;;;2.60;1.60;;;;;;;12.52;54.02;91327.63;5111010;28;20063;-77
2024/02/12 11:42:51;;;;;;;3.35;1.60;;;;;;;12.49;60.37;91320.38;5104414;28;20039;-77
2024/02/12 11:45:23;;;;;;;3.67;1.65;;;;;;;11.56;61.03;91323.19;5107059;28;20031;-75
2024/02/12 11:47:49;;;;;;;2.20;1.48;;;;;;;11.00;65.29;91323.41;5102569;28;20030;-75
2024/02/12 11:50:26;;;;;;;2.13;1.38;;;;;;;10.81;65.31;91323.81;5087492;28;20402;-76
2024/02/12 11:52:56;;;;;;;3.55;1.50;;;;;;;10.54;65.32;91327.63;5109752;28;20035;-77
2024/02/12 11:55:22;;;;;;;2.35;1.50;;;;;;;10.41;65.03;91324.09;5114145;28;20027;-77